createdAt,value
2017-10-12T00:00:50.099Z,0.00
2017-10-12T00:01:50.130Z,0.00
2017-10-12T00:02:50.162Z,0.00
2017-10-12T00:03:50.193Z,0.00
2017-10-12T00:04:50.225Z,0.00
2017-10-12T00:05:50.256Z,0.00
2017-10-12T00:06:50.287Z,0.00
2017-10-12T00:07:50.319Z,0.00
2017-10-12T00:08:50.351Z,0.00
2017-10-12T00:09:50.382Z,0.00
2017-10-12T00:10:50.414Z,0.00
2017-10-12T00:11:50.446Z,0.00
2017-10-12T00:12:50.479Z,0.00
2017-10-12T00:13:50.509Z,0.00
2017-10-12T00:14:50.541Z,0.00
2017-10-12T00:15:50.572Z,0.00
2017-10-12T00:16:50.603Z,0.00
2017-10-12T00:17:50.644Z,0.00
2017-10-12T00:18:50.664Z,0.00
2017-10-12T00:19:50.697Z,0.00
2017-10-12T00:20:50.728Z,0.00
2017-10-12T00:21:50.760Z,0.00
2017-10-12T00:22:50.791Z,0.00
2017-10-12T00:23:50.823Z,0.00
2017-10-12T00:24:50.855Z,0.00
2017-10-12T00:25:50.886Z,0.00
2017-10-12T00:26:50.917Z,0.00
2017-10-12T00:27:50.948Z,0.00
2017-10-12T00:28:50.981Z,0.00
2017-10-12T00:29:51.012Z,0.00
2017-10-12T00:30:51.043Z,0.00
2017-10-12T00:31:51.075Z,0.00
2017-10-12T00:32:51.109Z,0.00
2017-10-12T00:33:51.138Z,0.00
2017-10-12T00:34:51.169Z,0.00
2017-10-12T00:35:51.200Z,0.00
2017-10-12T00:36:51.233Z,0.00
2017-10-12T00:37:51.263Z,0.00
2017-10-12T00:38:51.295Z,0.00
2017-10-12T00:39:51.328Z,0.00
2017-10-12T00:40:51.359Z,0.00
2017-10-12T00:41:51.389Z,0.00
2017-10-12T00:42:51.422Z,0.00
2017-10-12T00:43:51.453Z,0.00
2017-10-12T00:44:51.485Z,0.00
2017-10-12T00:45:51.516Z,0.00
2017-10-12T00:46:51.553Z,0.00
2017-10-12T00:47:51.578Z,0.00
2017-10-12T00:48:51.613Z,0.00
2017-10-12T00:49:51.642Z,0.00
2017-10-12T00:50:51.675Z,0.00
2017-10-12T00:51:51.706Z,0.00
2017-10-12T00:52:51.738Z,0.00
2017-10-12T00:53:51.768Z,0.00
2017-10-12T00:54:51.800Z,0.00
2017-10-12T00:55:51.832Z,0.00
2017-10-12T00:56:51.862Z,0.00
2017-10-12T00:57:51.894Z,0.00
2017-10-12T00:58:51.926Z,0.00
2017-10-12T00:59:51.957Z,0.00
2017-10-12T01:00:51.989Z,0.00
2017-10-12T01:01:52.020Z,0.00
2017-10-12T01:02:52.053Z,0.00
2017-10-12T01:03:52.095Z,0.00
2017-10-12T01:04:52.118Z,0.00
2017-10-12T01:05:52.145Z,0.00
2017-10-12T01:06:52.176Z,0.00
2017-10-12T01:07:52.210Z,0.00
2017-10-12T01:08:52.241Z,0.00
2017-10-12T01:09:52.272Z,0.00
2017-10-12T01:10:52.303Z,0.00
2017-10-12T01:11:52.334Z,0.00
2017-10-12T01:12:52.368Z,0.00
2017-10-12T01:13:52.398Z,0.00
2017-10-12T01:14:52.429Z,0.00
2017-10-12T01:15:52.461Z,0.00
2017-10-12T01:16:52.493Z,0.00
2017-10-12T01:17:52.523Z,0.00
2017-10-12T01:18:52.554Z,0.00
2017-10-12T01:19:52.588Z,0.00
2017-10-12T01:20:52.617Z,0.00
2017-10-12T01:21:52.647Z,0.00
2017-10-12T01:22:52.680Z,0.00
2017-10-12T01:23:52.713Z,0.00
2017-10-12T01:24:52.744Z,0.00
2017-10-12T01:25:52.773Z,0.00
2017-10-12T01:26:52.805Z,0.00
2017-10-12T01:27:52.838Z,0.00
2017-10-12T01:28:52.869Z,0.00
2017-10-12T01:29:52.899Z,0.00
2017-10-12T01:30:52.933Z,0.00
2017-10-12T01:31:52.963Z,0.00
2017-10-12T01:32:53.001Z,0.00
2017-10-12T01:33:53.026Z,0.00
2017-10-12T01:34:53.057Z,0.00
2017-10-12T01:35:53.089Z,0.00
2017-10-12T01:36:53.120Z,0.00
2017-10-12T01:37:53.150Z,0.00
2017-10-12T01:38:53.183Z,0.00
2017-10-12T01:39:53.214Z,0.00
2017-10-12T01:40:53.246Z,0.00
2017-10-12T01:41:53.276Z,0.00
2017-10-12T01:42:53.309Z,0.00
2017-10-12T01:43:53.340Z,0.00
2017-10-12T01:44:53.372Z,0.00
2017-10-12T01:45:53.402Z,0.00
2017-10-12T01:46:53.434Z,0.00
2017-10-12T01:47:53.467Z,0.00
2017-10-12T01:48:53.496Z,0.00
2017-10-12T01:49:53.528Z,0.00
2017-10-12T01:50:53.559Z,0.00
2017-10-12T01:51:53.591Z,0.00
2017-10-12T01:52:53.622Z,0.00
2017-10-12T01:53:53.653Z,0.00
2017-10-12T01:54:53.685Z,0.00
2017-10-12T01:55:53.716Z,0.00
2017-10-12T01:56:53.748Z,0.00
2017-10-12T01:57:53.781Z,0.00
2017-10-12T01:58:53.809Z,0.00
2017-10-12T01:59:53.841Z,0.00
2017-10-12T02:00:53.872Z,0.00
2017-10-12T02:01:53.904Z,0.00
2017-10-12T02:02:53.935Z,0.00
2017-10-12T02:03:53.968Z,0.00
2017-10-12T02:04:53.998Z,0.00
2017-10-12T02:05:54.029Z,0.00
2017-10-12T02:06:54.062Z,0.00
2017-10-12T02:07:54.092Z,0.00
2017-10-12T02:08:54.122Z,0.00
2017-10-12T02:09:54.155Z,0.00
2017-10-12T02:10:54.187Z,0.00
2017-10-12T02:11:54.217Z,0.00
2017-10-12T02:12:54.249Z,0.00
2017-10-12T02:13:54.278Z,0.00
2017-10-12T02:14:54.309Z,0.00
2017-10-12T02:15:54.342Z,0.00
2017-10-12T02:16:54.373Z,0.00
2017-10-12T02:17:54.403Z,0.00
2017-10-12T02:18:54.434Z,0.00
2017-10-12T02:19:54.467Z,0.00
2017-10-12T02:20:54.498Z,0.00
2017-10-12T02:21:54.528Z,0.00
2017-10-12T02:22:54.560Z,0.00
2017-10-12T02:23:54.591Z,0.00
2017-10-12T02:24:54.623Z,0.00
2017-10-12T02:25:54.654Z,0.00
2017-10-12T02:26:54.685Z,0.00
2017-10-12T02:27:54.717Z,0.00
2017-10-12T02:28:54.747Z,0.00
2017-10-12T02:29:54.779Z,0.00
2017-10-12T02:30:54.810Z,0.00
2017-10-12T02:31:54.842Z,0.00
2017-10-12T02:32:54.873Z,0.00
2017-10-12T02:33:54.903Z,0.00
2017-10-12T02:34:54.934Z,0.00
2017-10-12T02:35:54.968Z,0.00
2017-10-12T02:36:54.997Z,0.00
2017-10-12T02:37:55.027Z,0.00
2017-10-12T02:38:55.059Z,0.00
2017-10-12T02:39:55.092Z,0.00
2017-10-12T02:40:55.122Z,0.00
2017-10-12T02:41:55.152Z,0.00
2017-10-12T02:42:55.185Z,0.00
2017-10-12T02:43:55.217Z,0.00
2017-10-12T02:44:55.246Z,0.00
2017-10-12T02:45:55.278Z,0.00
2017-10-12T02:46:55.313Z,0.00
2017-10-12T02:47:55.340Z,0.00
2017-10-12T02:48:55.373Z,0.00
2017-10-12T02:49:55.402Z,0.00
2017-10-12T02:50:55.434Z,0.00
2017-10-12T02:51:55.463Z,0.00
2017-10-12T02:52:55.502Z,0.00
2017-10-12T02:53:55.527Z,0.00
2017-10-12T02:54:55.557Z,0.00
2017-10-12T02:55:55.589Z,0.00
2017-10-12T02:57:28.833Z,0.00
2017-10-12T02:57:55.652Z,0.00
2017-10-12T02:58:55.682Z,0.00
2017-10-12T02:59:55.713Z,0.00
2017-10-12T03:00:55.745Z,0.00
2017-10-12T03:01:55.776Z,0.00
2017-10-12T03:02:55.807Z,0.00
2017-10-12T03:03:55.838Z,0.00
2017-10-12T03:04:55.870Z,0.00
2017-10-12T03:05:55.900Z,0.00
2017-10-12T03:06:55.931Z,0.00
2017-10-12T03:07:55.963Z,0.00
2017-10-12T03:08:55.994Z,0.00
2017-10-12T03:09:56.025Z,0.00
2017-10-12T03:10:56.056Z,0.00
2017-10-12T03:11:56.087Z,0.00
2017-10-12T03:12:56.119Z,0.00
2017-10-12T03:13:56.150Z,0.00
2017-10-12T03:14:56.181Z,0.00
2017-10-12T03:15:56.212Z,0.00
2017-10-12T03:16:56.244Z,0.00
2017-10-12T03:17:56.275Z,0.00
2017-10-12T03:18:56.306Z,0.00
2017-10-12T03:19:56.337Z,0.00
2017-10-12T03:20:56.368Z,0.00
2017-10-12T03:21:56.400Z,0.00
2017-10-12T03:22:56.430Z,0.00
2017-10-12T03:23:56.461Z,0.00
2017-10-12T03:24:56.492Z,0.00
2017-10-12T03:25:56.523Z,0.00
2017-10-12T03:26:56.555Z,0.00
2017-10-12T03:27:56.586Z,0.00
2017-10-12T03:28:56.619Z,0.00
2017-10-12T03:29:56.649Z,0.00
2017-10-12T03:30:56.681Z,0.00
2017-10-12T03:31:56.711Z,0.00
2017-10-12T03:32:56.741Z,0.00
2017-10-12T03:33:56.772Z,0.00
2017-10-12T03:34:56.804Z,0.00
2017-10-12T03:35:56.835Z,0.00
2017-10-12T03:36:56.866Z,0.00
2017-10-12T03:37:56.897Z,0.00
2017-10-12T03:38:56.928Z,0.00
2017-10-12T03:39:56.959Z,0.00
2017-10-12T03:40:56.991Z,0.00
2017-10-12T03:41:57.021Z,0.00
2017-10-12T03:42:57.053Z,0.00
2017-10-12T03:43:57.084Z,0.00
2017-10-12T03:44:57.116Z,0.00
2017-10-12T03:45:57.146Z,0.00
2017-10-12T03:46:57.178Z,0.00
2017-10-12T03:47:57.208Z,0.00
2017-10-12T03:48:57.240Z,0.00
2017-10-12T03:49:57.270Z,0.00
2017-10-12T03:50:57.307Z,0.00
2017-10-12T03:51:57.334Z,0.00
2017-10-12T03:52:57.365Z,0.00
2017-10-12T03:53:57.395Z,0.00
2017-10-12T03:54:57.427Z,0.00
2017-10-12T03:55:57.459Z,0.00
2017-10-12T03:56:57.491Z,0.00
2017-10-12T03:57:57.520Z,0.00
2017-10-12T03:58:57.552Z,0.00
2017-10-12T03:59:57.586Z,0.00
2017-10-12T04:00:57.615Z,0.00
2017-10-12T04:01:57.645Z,0.00
2017-10-12T04:02:57.677Z,0.00
2017-10-12T04:03:57.708Z,0.00
2017-10-12T04:04:57.746Z,0.00
2017-10-12T04:05:57.777Z,0.00
2017-10-12T04:06:57.802Z,0.00
2017-10-12T04:07:57.833Z,0.00
2017-10-12T04:08:57.871Z,0.00
2017-10-12T04:09:57.897Z,0.00
2017-10-12T04:10:57.927Z,0.00
2017-10-12T04:11:57.958Z,0.00
2017-10-12T04:12:57.989Z,0.00
2017-10-12T04:13:58.020Z,0.00
2017-10-12T04:14:58.052Z,0.00
2017-10-12T04:15:58.082Z,0.00
2017-10-12T04:16:58.113Z,0.00
2017-10-12T04:17:58.144Z,0.00
2017-10-12T04:18:58.176Z,0.00
2017-10-12T04:19:58.207Z,0.00
2017-10-12T04:20:58.244Z,0.00
2017-10-12T04:21:58.268Z,0.00
2017-10-12T04:22:58.299Z,0.00
2017-10-12T04:23:58.332Z,0.00
2017-10-12T04:24:58.363Z,0.00
2017-10-12T04:25:58.394Z,0.00
2017-10-12T04:26:58.424Z,0.00
2017-10-12T04:27:58.457Z,0.00
2017-10-12T04:28:58.489Z,0.00
2017-10-12T04:29:58.518Z,0.00
2017-10-12T04:30:58.548Z,0.00
2017-10-12T04:31:58.585Z,0.00
2017-10-12T04:32:58.613Z,0.00
2017-10-12T04:33:58.645Z,0.00
2017-10-12T04:34:58.675Z,0.00
2017-10-12T04:35:58.707Z,0.00
2017-10-12T04:36:58.737Z,0.00
2017-10-12T04:37:58.768Z,0.00
2017-10-12T04:38:58.800Z,0.00
2017-10-12T04:39:58.832Z,0.00
2017-10-12T04:40:58.863Z,0.00
2017-10-12T04:41:58.895Z,0.00
2017-10-12T04:42:58.926Z,0.00
2017-10-12T04:43:58.958Z,0.00
2017-10-12T04:44:58.989Z,0.00
2017-10-12T04:45:59.019Z,0.00
2017-10-12T04:46:59.052Z,0.00
2017-10-12T04:47:59.103Z,0.00
2017-10-12T04:48:59.115Z,0.00
2017-10-12T04:49:59.145Z,0.00
2017-10-12T04:50:59.177Z,0.00
2017-10-12T04:51:59.210Z,0.00
2017-10-12T04:52:59.241Z,0.00
2017-10-12T04:53:59.272Z,0.00
2017-10-12T04:54:59.304Z,0.00
2017-10-12T04:55:59.336Z,0.00
2017-10-12T04:56:59.367Z,0.00
2017-10-12T04:57:59.398Z,0.00
2017-10-12T04:58:59.430Z,0.00
2017-10-12T04:59:59.466Z,0.00
2017-10-12T05:00:59.494Z,0.00
2017-10-12T05:01:59.524Z,0.00
2017-10-12T05:02:59.556Z,0.00
2017-10-12T05:03:59.589Z,0.00
2017-10-12T05:04:59.620Z,0.00
2017-10-12T05:05:59.651Z,0.00
2017-10-12T05:06:59.685Z,0.00
2017-10-12T05:07:59.714Z,0.00
2017-10-12T05:08:59.747Z,0.00
2017-10-12T05:09:59.776Z,0.00
2017-10-12T05:10:59.811Z,0.00
2017-10-12T05:11:59.843Z,0.00
2017-10-12T05:12:59.874Z,0.00
2017-10-12T05:13:59.905Z,0.00
2017-10-12T05:14:59.937Z,0.00
2017-10-12T05:15:59.969Z,4.00
2017-10-12T05:17:00.002Z,4.00
2017-10-12T05:18:00.033Z,0.00
2017-10-12T05:19:00.065Z,4.00
2017-10-12T05:20:00.096Z,4.00
2017-10-12T05:21:00.130Z,4.00
2017-10-12T05:22:00.161Z,4.00
2017-10-12T05:23:00.192Z,4.00
2017-10-12T05:24:00.230Z,8.00
2017-10-12T05:25:00.257Z,8.00
2017-10-12T05:26:00.288Z,8.00
2017-10-12T05:27:00.320Z,12.00
2017-10-12T05:28:00.352Z,16.00
2017-10-12T05:29:00.385Z,16.00
2017-10-12T05:30:00.415Z,20.00
2017-10-12T05:31:00.499Z,20.00
2017-10-12T05:32:00.481Z,24.00
2017-10-12T05:33:00.520Z,32.00
2017-10-12T05:34:00.543Z,32.00
2017-10-12T05:35:00.576Z,32.00
2017-10-12T05:36:00.609Z,32.00
2017-10-12T05:37:00.642Z,36.00
2017-10-12T05:38:00.673Z,36.00
2017-10-12T05:39:00.706Z,40.00
2017-10-12T05:40:00.736Z,44.00
2017-10-12T05:41:00.770Z,52.00
2017-10-12T05:42:00.803Z,56.00
2017-10-12T05:43:00.834Z,52.00
2017-10-12T05:44:00.867Z,48.00
2017-10-12T05:45:00.901Z,52.00
2017-10-12T05:46:00.931Z,52.00
2017-10-12T05:47:00.963Z,52.00
2017-10-12T05:48:00.997Z,52.00
2017-10-12T05:49:01.029Z,60.00
2017-10-12T05:50:01.066Z,88.00
2017-10-12T05:51:01.092Z,104.00
2017-10-12T05:52:01.126Z,96.00
2017-10-12T05:53:01.163Z,96.00
2017-10-12T05:54:01.191Z,88.00
2017-10-12T05:55:01.225Z,80.00
2017-10-12T05:56:01.257Z,80.00
2017-10-12T05:57:01.290Z,100.00
2017-10-12T05:58:01.321Z,140.00
2017-10-12T05:59:01.354Z,180.00
2017-10-12T06:00:01.387Z,204.00
2017-10-12T06:01:01.421Z,216.00
2017-10-12T06:02:01.455Z,192.00
2017-10-12T06:03:01.486Z,184.00
2017-10-12T06:04:01.518Z,172.00
2017-10-12T06:05:01.550Z,156.00
2017-10-12T06:06:01.584Z,152.00
2017-10-12T06:07:01.618Z,160.00
2017-10-12T06:08:01.654Z,176.00
2017-10-12T06:09:01.686Z,188.00
2017-10-12T06:10:01.715Z,180.00
2017-10-12T06:11:01.751Z,164.00
2017-10-12T06:12:01.784Z,144.00
2017-10-12T06:13:01.814Z,136.00
2017-10-12T06:14:01.848Z,136.00
2017-10-12T06:15:01.882Z,136.00
2017-10-12T06:16:01.913Z,140.00
2017-10-12T06:17:01.947Z,144.00
2017-10-12T06:18:01.979Z,144.00
2017-10-12T06:19:02.018Z,140.00
2017-10-12T06:20:02.045Z,152.00
2017-10-12T06:21:02.079Z,160.00
2017-10-12T06:22:02.163Z,188.00
2017-10-12T06:23:02.146Z,204.00
2017-10-12T06:24:02.180Z,212.00
2017-10-12T06:25:02.213Z,228.00
2017-10-12T06:26:02.245Z,268.00
2017-10-12T06:27:02.279Z,320.00
2017-10-12T06:28:02.312Z,352.00
2017-10-12T06:29:02.347Z,420.00
2017-10-12T06:30:02.381Z,432.00
2017-10-12T06:31:02.414Z,408.00
2017-10-12T06:32:02.451Z,388.00
2017-10-12T06:33:02.480Z,380.00
2017-10-12T06:34:02.513Z,392.00
2017-10-12T06:35:02.547Z,392.00
2017-10-12T06:36:02.582Z,432.00
2017-10-12T06:37:02.615Z,512.00
2017-10-12T06:38:02.647Z,564.00
2017-10-12T06:39:02.681Z,608.00
2017-10-12T06:40:02.714Z,672.00
2017-10-12T06:41:02.748Z,764.00
2017-10-12T06:42:02.782Z,820.00
2017-10-12T06:43:02.816Z,860.00
2017-10-12T06:44:02.854Z,904.00
2017-10-12T06:45:02.886Z,988.00
2017-10-12T06:46:02.917Z,1152.00
2017-10-12T06:47:02.951Z,1252.00
2017-10-12T06:48:02.986Z,1312.00
2017-10-12T06:49:03.019Z,1432.00
2017-10-12T06:50:03.052Z,1608.00
2017-10-12T06:51:03.086Z,1780.00
2017-10-12T06:52:03.121Z,1940.00
2017-10-12T06:53:03.153Z,2112.00
2017-10-12T06:54:03.188Z,2264.00
2017-10-12T06:55:03.223Z,2364.00
2017-10-12T06:56:03.257Z,2260.00
2017-10-12T06:57:03.291Z,2072.00
2017-10-12T06:58:03.324Z,1884.00
2017-10-12T06:59:03.359Z,1876.00
2017-10-12T07:00:03.393Z,1900.00
2017-10-12T07:01:03.428Z,1984.00
2017-10-12T07:02:03.461Z,2224.00
2017-10-12T07:03:03.496Z,2512.00
2017-10-12T07:04:03.531Z,2768.00
2017-10-12T07:05:03.564Z,3032.00
2017-10-12T07:06:03.597Z,3300.00
2017-10-12T07:07:03.633Z,3560.00
2017-10-12T07:08:03.669Z,3792.00
2017-10-12T07:09:03.703Z,4064.00
2017-10-12T07:10:03.740Z,4252.00
2017-10-12T07:11:03.772Z,4356.00
2017-10-12T07:12:03.805Z,4388.00
2017-10-12T07:13:03.841Z,4204.00
2017-10-12T07:14:03.875Z,3956.00
2017-10-12T07:15:03.909Z,4020.00
2017-10-12T07:16:05.648Z,3852.00
2017-10-12T07:17:03.978Z,3596.00
2017-10-12T07:18:04.018Z,3568.00
2017-10-12T07:19:04.048Z,3504.00
2017-10-12T07:20:04.085Z,3636.00
2017-10-12T07:21:04.119Z,3744.00
2017-10-12T07:22:04.157Z,4048.00
2017-10-12T07:23:04.189Z,4468.00
2017-10-12T07:24:04.224Z,4996.00
2017-10-12T07:25:04.259Z,5412.00
2017-10-12T07:26:04.293Z,5636.00
2017-10-12T07:27:04.329Z,5208.00
2017-10-12T07:28:04.364Z,5416.00
2017-10-12T07:29:04.400Z,5732.00
2017-10-12T07:30:04.434Z,7676.00
2017-10-12T07:31:04.469Z,7748.00
2017-10-12T07:32:04.505Z,7384.00
2017-10-12T07:33:04.542Z,7708.00
2017-10-12T07:34:04.576Z,8000.00
2017-10-12T07:35:04.610Z,8036.00
2017-10-12T07:36:04.646Z,6168.00
2017-10-12T07:37:04.694Z,6780.00
2017-10-12T07:38:04.720Z,8096.00
2017-10-12T07:39:04.754Z,8072.00
2017-10-12T07:40:04.792Z,7972.00
2017-10-12T07:41:04.828Z,8036.00
2017-10-12T07:42:04.865Z,8180.00
2017-10-12T07:43:04.900Z,8624.00
2017-10-12T07:44:04.937Z,9372.00
2017-10-12T07:45:04.974Z,10328.00
2017-10-12T07:46:05.010Z,11040.00
2017-10-12T07:47:05.046Z,11300.00
2017-10-12T07:48:05.085Z,11160.00
2017-10-12T07:49:05.122Z,11732.00
2017-10-12T07:50:05.158Z,12452.00
2017-10-12T07:51:05.197Z,13508.00
2017-10-12T07:52:05.235Z,14712.00
2017-10-12T07:53:05.272Z,14572.00
2017-10-12T07:54:05.311Z,11444.00
2017-10-12T07:55:05.348Z,10700.00
2017-10-12T07:56:05.387Z,11688.00
2017-10-12T07:57:05.427Z,11392.00
2017-10-12T07:58:05.464Z,11340.00
2017-10-12T07:59:05.503Z,9512.00
2017-10-12T08:00:05.542Z,7708.00
2017-10-12T08:01:05.583Z,7096.00
2017-10-12T08:02:05.622Z,6672.00
2017-10-12T08:03:05.659Z,6224.00
2017-10-12T08:04:05.704Z,6012.00
2017-10-12T08:05:05.738Z,5704.00
2017-10-12T08:06:05.777Z,5480.00
2017-10-12T08:07:05.819Z,5408.00
2017-10-12T08:08:05.855Z,5752.00
2017-10-12T08:09:05.895Z,6108.00
2017-10-12T08:10:06.033Z,6176.00
2017-10-12T08:11:05.973Z,6232.00
2017-10-12T08:12:06.013Z,6240.00
2017-10-12T08:13:06.051Z,5628.00
2017-10-12T08:14:06.090Z,5312.00
2017-10-12T08:15:06.129Z,5760.00
2017-10-12T08:16:06.167Z,6000.00
2017-10-12T08:17:06.208Z,5876.00
2017-10-12T08:18:06.245Z,5596.00
2017-10-12T08:19:06.283Z,5352.00
2017-10-12T08:20:06.325Z,5324.00
2017-10-12T08:21:06.362Z,5308.00
2017-10-12T08:22:06.401Z,5424.00
2017-10-12T08:23:06.440Z,5172.00
2017-10-12T08:24:06.484Z,5172.00
2017-10-12T08:25:06.517Z,5532.00
2017-10-12T08:26:06.561Z,5636.00
2017-10-12T08:27:06.595Z,5848.00
2017-10-12T08:28:06.633Z,5552.00
2017-10-12T08:29:06.672Z,5820.00
2017-10-12T08:30:06.711Z,6900.00
2017-10-12T08:31:06.750Z,8572.00
2017-10-12T08:32:06.789Z,10404.00
2017-10-12T08:33:06.827Z,10676.00
2017-10-12T08:34:06.866Z,12892.00
2017-10-12T08:35:06.904Z,13884.00
2017-10-12T08:36:06.944Z,12328.00
2017-10-12T08:37:06.990Z,13312.00
2017-10-12T08:38:07.020Z,17440.00
2017-10-12T08:39:07.060Z,16736.00
2017-10-12T08:40:07.100Z,18080.00
2017-10-12T08:41:07.140Z,25664.00
2017-10-12T08:42:07.178Z,62816.00
2017-10-12T08:43:07.217Z,18912.00
2017-10-12T08:44:07.263Z,18336.00
2017-10-12T08:45:07.297Z,50720.00
2017-10-12T08:46:07.337Z,34368.00
2017-10-12T08:47:07.377Z,18432.00
2017-10-12T08:48:07.417Z,14272.00
2017-10-12T08:49:07.459Z,15872.00
2017-10-12T08:50:07.499Z,14716.00
2017-10-12T08:51:07.539Z,11328.00
2017-10-12T08:52:07.582Z,10008.00
2017-10-12T08:53:07.622Z,8572.00
2017-10-12T08:54:07.662Z,8084.00
2017-10-12T08:55:07.703Z,8120.00
2017-10-12T08:56:07.744Z,6816.00
2017-10-12T08:57:07.786Z,6348.00
2017-10-12T08:58:07.825Z,6360.00
2017-10-12T08:59:07.868Z,5616.00
2017-10-12T09:00:07.909Z,4960.00
2017-10-12T09:01:07.949Z,5264.00
2017-10-12T09:02:07.989Z,5592.00
2017-10-12T09:03:08.029Z,5612.00
2017-10-12T09:04:08.072Z,5708.00
2017-10-12T09:05:08.117Z,5828.00
2017-10-12T09:06:08.151Z,5832.00
2017-10-12T09:07:08.191Z,5736.00
2017-10-12T09:08:08.231Z,5568.00
2017-10-12T09:09:08.278Z,5340.00
2017-10-12T09:10:08.312Z,4848.00
2017-10-12T09:11:08.357Z,4516.00
2017-10-12T09:12:08.392Z,4676.00
2017-10-12T09:13:08.432Z,5124.00
2017-10-12T09:14:08.472Z,5740.00
2017-10-12T09:15:08.513Z,5960.00
2017-10-12T09:16:08.552Z,5736.00
2017-10-12T09:17:08.593Z,5660.00
2017-10-12T09:18:08.630Z,5300.00
2017-10-12T09:19:08.670Z,4852.00
2017-10-12T09:20:08.710Z,4648.00
2017-10-12T09:21:08.750Z,4608.00
2017-10-12T09:22:08.789Z,4612.00
2017-10-12T09:23:08.828Z,4632.00
2017-10-12T09:24:08.869Z,4756.00
2017-10-12T09:25:08.909Z,5072.00
2017-10-12T09:26:08.947Z,5312.00
2017-10-12T09:27:08.987Z,5040.00
2017-10-12T09:28:09.025Z,4320.00
2017-10-12T09:29:09.066Z,3960.00
2017-10-12T09:30:09.104Z,3752.00
2017-10-12T09:31:09.143Z,3664.00
2017-10-12T09:32:09.181Z,3648.00
2017-10-12T09:33:09.223Z,3592.00
2017-10-12T09:34:09.260Z,4232.00
2017-10-12T09:35:09.306Z,4732.00
2017-10-12T09:36:09.340Z,4932.00
2017-10-12T09:37:09.380Z,4644.00
2017-10-12T09:38:09.417Z,4392.00
2017-10-12T09:39:09.457Z,4676.00
2017-10-12T09:40:09.495Z,4448.00
2017-10-12T09:41:09.535Z,3728.00
2017-10-12T09:42:09.575Z,2936.00
2017-10-12T09:43:09.612Z,2632.00
2017-10-12T09:44:09.652Z,2444.00
2017-10-12T09:45:09.691Z,2424.00
2017-10-12T09:46:09.730Z,2520.00
2017-10-12T09:47:09.775Z,2620.00
2017-10-12T09:48:09.811Z,2376.00
2017-10-12T09:49:09.845Z,2172.00
2017-10-12T09:50:09.893Z,2208.00
2017-10-12T09:51:09.923Z,2564.00
2017-10-12T09:52:09.962Z,2916.00
2017-10-12T09:53:10.001Z,3328.00
2017-10-12T09:54:10.039Z,3464.00
2017-10-12T09:55:10.077Z,3836.00
2017-10-12T09:56:10.115Z,4676.00
2017-10-12T09:57:10.155Z,4512.00
2017-10-12T09:58:10.193Z,4448.00
2017-10-12T09:59:10.230Z,4016.00
2017-10-12T10:00:10.269Z,3672.00
2017-10-12T10:01:10.308Z,3984.00
2017-10-12T10:02:10.346Z,5124.00
2017-10-12T10:03:10.384Z,5812.00
2017-10-12T10:04:10.424Z,5352.00
2017-10-12T10:05:10.462Z,4748.00
2017-10-12T10:06:10.500Z,3720.00
2017-10-12T10:07:10.637Z,3328.00
2017-10-12T10:08:10.582Z,3148.00
2017-10-12T10:09:10.620Z,3300.00
2017-10-12T10:10:10.654Z,3880.00
2017-10-12T10:11:10.692Z,4456.00
2017-10-12T10:12:10.731Z,5380.00
2017-10-12T10:13:10.770Z,7240.00
2017-10-12T10:14:10.807Z,10140.00
2017-10-12T10:15:10.846Z,11564.00
2017-10-12T10:16:10.885Z,10600.00
2017-10-12T10:17:11.024Z,8748.00
2017-10-12T10:18:10.962Z,8712.00
2017-10-12T10:19:11.000Z,8800.00
2017-10-12T10:20:11.039Z,8948.00
2017-10-12T10:21:11.079Z,9052.00
2017-10-12T10:22:11.116Z,9092.00
2017-10-12T10:23:11.155Z,9480.00
2017-10-12T10:24:11.195Z,10624.00
2017-10-12T10:25:11.234Z,11644.00
2017-10-12T10:26:11.271Z,12456.00
2017-10-12T10:27:11.311Z,14064.00
2017-10-12T10:28:11.351Z,14924.00
2017-10-12T10:29:11.391Z,15756.00
2017-10-12T10:30:11.428Z,18688.00
2017-10-12T10:31:11.468Z,20288.00
2017-10-12T10:32:11.507Z,20128.00
2017-10-12T10:33:11.550Z,18720.00
2017-10-12T10:34:11.585Z,16512.00
2017-10-12T10:35:11.627Z,16044.00
2017-10-12T10:36:11.667Z,16184.00
2017-10-12T10:37:11.708Z,15404.00
2017-10-12T10:38:11.749Z,13724.00
2017-10-12T10:39:11.788Z,12056.00
2017-10-12T10:40:11.827Z,10908.00
2017-10-12T10:41:11.867Z,10092.00
2017-10-12T10:42:11.907Z,9080.00
2017-10-12T10:43:11.948Z,7764.00
2017-10-12T10:44:11.988Z,6336.00
2017-10-12T10:45:12.030Z,5216.00
2017-10-12T10:46:12.070Z,4488.00
2017-10-12T10:47:12.113Z,4164.00
2017-10-12T10:48:12.152Z,4092.00
2017-10-12T10:49:12.193Z,4468.00
2017-10-12T10:50:12.233Z,5172.00
2017-10-12T10:51:12.271Z,5512.00
2017-10-12T10:52:12.313Z,5116.00
2017-10-12T10:53:12.354Z,4924.00
2017-10-12T10:54:12.393Z,4876.00
2017-10-12T10:55:12.446Z,4740.00
2017-10-12T10:56:12.474Z,4540.00
2017-10-12T10:57:12.515Z,4308.00
2017-10-12T10:58:12.555Z,4264.00
2017-10-12T10:59:12.596Z,4564.00
2017-10-12T11:00:12.634Z,4820.00
2017-10-12T11:01:12.676Z,5080.00
2017-10-12T11:02:12.714Z,5156.00
2017-10-12T11:03:12.754Z,5356.00
2017-10-12T11:04:12.795Z,6088.00
2017-10-12T11:05:12.835Z,6880.00
2017-10-12T11:06:12.879Z,7160.00
2017-10-12T11:07:12.914Z,7436.00
2017-10-12T11:08:12.955Z,7788.00
2017-10-12T11:09:12.995Z,7884.00
2017-10-12T11:10:13.035Z,7824.00
2017-10-12T11:11:13.074Z,8140.00
2017-10-12T11:12:13.115Z,8780.00
2017-10-12T11:13:13.154Z,8636.00
2017-10-12T11:14:13.194Z,8088.00
2017-10-12T11:15:13.235Z,7320.00
2017-10-12T11:16:13.277Z,6844.00
2017-10-12T11:17:13.314Z,6816.00
2017-10-12T11:18:13.354Z,7756.00
2017-10-12T11:19:13.393Z,8668.00
2017-10-12T11:20:13.434Z,8996.00
2017-10-12T11:21:13.474Z,8708.00
2017-10-12T11:22:13.513Z,8452.00
2017-10-12T11:23:13.554Z,8244.00
2017-10-12T11:24:13.594Z,7972.00
2017-10-12T11:25:13.634Z,8456.00
2017-10-12T11:26:13.673Z,8780.00
2017-10-12T11:27:13.713Z,8920.00
2017-10-12T11:28:13.755Z,8656.00
2017-10-12T11:29:13.795Z,8668.00
2017-10-12T11:30:13.834Z,9316.00
2017-10-12T11:31:13.873Z,9180.00
2017-10-12T11:32:13.917Z,8972.00
2017-10-12T11:33:13.954Z,9332.00
2017-10-12T11:34:13.992Z,9768.00
2017-10-12T11:35:14.034Z,10156.00
2017-10-12T11:36:14.075Z,10592.00
2017-10-12T11:37:14.116Z,10328.00
2017-10-12T11:38:14.155Z,10060.00
2017-10-12T11:39:14.195Z,10468.00
2017-10-12T11:40:14.235Z,11228.00
2017-10-12T11:41:14.284Z,10744.00
2017-10-12T11:42:14.316Z,10404.00
2017-10-12T11:43:14.355Z,9076.00
2017-10-12T11:44:14.400Z,8136.00
2017-10-12T11:45:14.450Z,6232.00
2017-10-12T11:46:14.477Z,6424.00
2017-10-12T11:47:14.519Z,8520.00
2017-10-12T11:48:14.558Z,8708.00
2017-10-12T11:49:14.600Z,8464.00
2017-10-12T11:50:14.640Z,8428.00
2017-10-12T11:51:14.680Z,9868.00
2017-10-12T11:52:14.721Z,9252.00
2017-10-12T11:53:14.761Z,9304.00
2017-10-12T11:54:14.806Z,10984.00
2017-10-12T11:55:14.842Z,13124.00
2017-10-12T11:56:14.881Z,13520.00
2017-10-12T11:57:14.924Z,13624.00
2017-10-12T11:58:14.964Z,12152.00
2017-10-12T11:59:15.006Z,11984.00
2017-10-12T12:00:15.048Z,13624.00
2017-10-12T12:01:15.086Z,13532.00
2017-10-12T12:02:15.124Z,12372.00
2017-10-12T12:03:15.166Z,11052.00
2017-10-12T12:04:15.207Z,10312.00
2017-10-12T12:05:15.248Z,12032.00
2017-10-12T12:06:15.289Z,13744.00
2017-10-12T12:07:15.329Z,14460.00
2017-10-12T12:08:15.372Z,14480.00
2017-10-12T12:09:15.413Z,14988.00
2017-10-12T12:10:15.452Z,15240.00
2017-10-12T12:11:15.494Z,16048.00
2017-10-12T12:12:15.535Z,16704.00
2017-10-12T12:13:15.576Z,20192.00
2017-10-12T12:14:15.617Z,16640.00
2017-10-12T12:15:15.658Z,15688.00
2017-10-12T12:16:15.701Z,15652.00
2017-10-12T12:17:15.742Z,17216.00
2017-10-12T12:18:16.031Z,19936.00
2017-10-12T12:19:15.876Z,23136.00
2017-10-12T12:20:15.866Z,23968.00
2017-10-12T12:21:15.909Z,24160.00
2017-10-12T12:22:15.950Z,23232.00
2017-10-12T12:23:15.992Z,26368.00
2017-10-12T12:24:16.040Z,25664.00
2017-10-12T12:25:16.077Z,38624.00
2017-10-12T12:26:16.118Z,112576.00
2017-10-12T12:27:16.177Z,25280.00
2017-10-12T12:28:16.206Z,69504.00
2017-10-12T12:29:16.248Z,25984.00
2017-10-12T12:30:16.291Z,25312.00
2017-10-12T12:31:16.333Z,31360.00
2017-10-12T12:32:16.378Z,29088.00
2017-10-12T12:33:16.421Z,24320.00
2017-10-12T12:34:16.465Z,21248.00
2017-10-12T12:35:16.510Z,20512.00
2017-10-12T12:36:16.553Z,18912.00